sensor_id;sensor_type;location;lat;lon;timestamp;temperature;humidity
53962;DHT22;39868;53.398;6.564;2024-02-16T00:00:11;13.80;91.40
53962;DHT22;39868;53.398;6.564;2024-02-16T00:02:40;13.80;91.40
53962;DHT22;39868;53.398;6.564;2024-02-16T00:05:11;13.80;91.40
53962;DHT22;39868;53.398;6.564;2024-02-16T00:07:39;13.70;91.40
53962;DHT22;39868;53.398;6.564;2024-02-16T00:10:07;13.70;91.40
53962;DHT22;39868;53.398;6.564;2024-02-16T00:12:36;13.80;91.40
53962;DHT22;39868;53.398;6.564;2024-02-16T00:15:04;13.70;91.40
53962;DHT22;39868;53.398;6.564;2024-02-16T00:17:31;13.80;91.40
53962;DHT22;39868;53.398;6.564;2024-02-16T00:19:58;13.80;91.40
53962;DHT22;39868;53.398;6.564;2024-02-16T00:22:26;13.80;91.40
53962;DHT22;39868;53.398;6.564;2024-02-16T00:24:53;13.80;91.40
53962;DHT22;39868;53.398;6.564;2024-02-16T00:27:20;13.80;91.30
53962;DHT22;39868;53.398;6.564;2024-02-16T00:29:48;13.80;91.30
53962;DHT22;39868;53.398;6.564;2024-02-16T00:32:15;13.80;91.30
53962;DHT22;39868;53.398;6.564;2024-02-16T00:34:43;13.80;91.20
53962;DHT22;39868;53.398;6.564;2024-02-16T00:37:11;13.80;91.20
53962;DHT22;39868;53.398;6.564;2024-02-16T00:39:41;13.80;91.20
53962;DHT22;39868;53.398;6.564;2024-02-16T00:42:08;13.80;91.20
53962;DHT22;39868;53.398;6.564;2024-02-16T00:44:36;13.70;91.10
53962;DHT22;39868;53.398;6.564;2024-02-16T00:47:04;13.70;91.10
53962;DHT22;39868;53.398;6.564;2024-02-16T00:49:36;13.70;91.10
53962;DHT22;39868;53.398;6.564;2024-02-16T00:52:04;13.70;91.10
53962;DHT22;39868;53.398;6.564;2024-02-16T00:54:31;13.70;91.10
53962;DHT22;39868;53.398;6.564;2024-02-16T00:56:59;13.70;91.10
53962;DHT22;39868;53.398;6.564;2024-02-16T00:59:30;13.70;91.10
53962;DHT22;39868;53.398;6.564;2024-02-16T01:01:57;13.60;91.10
53962;DHT22;39868;53.398;6.564;2024-02-16T01:04:24;13.60;91.10
53962;DHT22;39868;53.398;6.564;2024-02-16T01:06:52;13.70;91.10
53962;DHT22;39868;53.398;6.564;2024-02-16T01:09:19;13.70;91.10
53962;DHT22;39868;53.398;6.564;2024-02-16T01:11:46;13.70;91.10
53962;DHT22;39868;53.398;6.564;2024-02-16T01:14:15;13.70;91.10
53962;DHT22;39868;53.398;6.564;2024-02-16T01:16:42;13.70;91.10
53962;DHT22;39868;53.398;6.564;2024-02-16T01:19:10;13.70;91.00
53962;DHT22;39868;53.398;6.564;2024-02-16T01:21:37;13.80;91.00
53962;DHT22;39868;53.398;6.564;2024-02-16T01:24:05;13.70;91.00
53962;DHT22;39868;53.398;6.564;2024-02-16T01:26:33;13.70;91.00
53962;DHT22;39868;53.398;6.564;2024-02-16T01:29:00;13.80;91.00
53962;DHT22;39868;53.398;6.564;2024-02-16T01:31:29;13.70;90.90
53962;DHT22;39868;53.398;6.564;2024-02-16T01:33:56;13.80;90.80
53962;DHT22;39868;53.398;6.564;2024-02-16T01:36:24;13.70;90.70
53962;DHT22;39868;53.398;6.564;2024-02-16T01:38:51;13.70;90.70
53962;DHT22;39868;53.398;6.564;2024-02-16T01:41:19;13.70;90.60
53962;DHT22;39868;53.398;6.564;2024-02-16T01:43:46;13.80;90.60
53962;DHT22;39868;53.398;6.564;2024-02-16T01:46:13;13.80;90.60
53962;DHT22;39868;53.398;6.564;2024-02-16T01:48:40;13.70;90.50
53962;DHT22;39868;53.398;6.564;2024-02-16T01:51:09;13.70;90.50
53962;DHT22;39868;53.398;6.564;2024-02-16T01:53:37;13.70;90.40
53962;DHT22;39868;53.398;6.564;2024-02-16T01:56:05;13.70;90.50
53962;DHT22;39868;53.398;6.564;2024-02-16T01:58:33;13.70;90.40
53962;DHT22;39868;53.398;6.564;2024-02-16T02:01:00;13.70;90.40
53962;DHT22;39868;53.398;6.564;2024-02-16T02:03:29;13.70;90.40
53962;DHT22;39868;53.398;6.564;2024-02-16T02:05:56;13.70;90.40
53962;DHT22;39868;53.398;6.564;2024-02-16T02:08:25;13.70;90.40
53962;DHT22;39868;53.398;6.564;2024-02-16T02:10:53;13.70;90.30
53962;DHT22;39868;53.398;6.564;2024-02-16T02:13:21;13.70;90.40
53962;DHT22;39868;53.398;6.564;2024-02-16T02:15:51;13.60;90.30
53962;DHT22;39868;53.398;6.564;2024-02-16T02:18:20;13.60;90.30
53962;DHT22;39868;53.398;6.564;2024-02-16T02:20:48;13.60;90.30
53962;DHT22;39868;53.398;6.564;2024-02-16T02:23:15;13.60;90.30
53962;DHT22;39868;53.398;6.564;2024-02-16T02:25:42;13.60;90.30
53962;DHT22;39868;53.398;6.564;2024-02-16T02:28:09;13.60;90.30
53962;DHT22;39868;53.398;6.564;2024-02-16T02:30:36;13.60;90.20
53962;DHT22;39868;53.398;6.564;2024-02-16T02:33:05;13.50;90.10
53962;DHT22;39868;53.398;6.564;2024-02-16T02:35:32;13.50;90.20
53962;DHT22;39868;53.398;6.564;2024-02-16T02:38:00;13.50;90.20
53962;DHT22;39868;53.398;6.564;2024-02-16T02:40:27;13.50;90.10
53962;DHT22;39868;53.398;6.564;2024-02-16T02:42:54;13.50;90.10
53962;DHT22;39868;53.398;6.564;2024-02-16T02:45:21;13.50;90.10
53962;DHT22;39868;53.398;6.564;2024-02-16T02:47:51;13.50;90.10
53962;DHT22;39868;53.398;6.564;2024-02-16T02:50:19;13.50;90.20
53962;DHT22;39868;53.398;6.564;2024-02-16T02:52:46;13.40;90.20
53962;DHT22;39868;53.398;6.564;2024-02-16T02:55:14;13.40;90.10
53962;DHT22;39868;53.398;6.564;2024-02-16T02:57:41;13.40;90.20
53962;DHT22;39868;53.398;6.564;2024-02-16T03:00:09;13.40;90.20
53962;DHT22;39868;53.398;6.564;2024-02-16T03:02:39;13.30;90.10
53962;DHT22;39868;53.398;6.564;2024-02-16T03:05:07;13.30;90.10
53962;DHT22;39868;53.398;6.564;2024-02-16T03:07:35;13.30;90.10
53962;DHT22;39868;53.398;6.564;2024-02-16T03:10:02;13.30;90.00
53962;DHT22;39868;53.398;6.564;2024-02-16T03:12:31;13.30;90.10
53962;DHT22;39868;53.398;6.564;2024-02-16T03:15:00;13.30;90.10
53962;DHT22;39868;53.398;6.564;2024-02-16T03:17:30;13.30;90.10
53962;DHT22;39868;53.398;6.564;2024-02-16T03:19:57;13.30;90.10
53962;DHT22;39868;53.398;6.564;2024-02-16T03:22:24;13.30;90.10
53962;DHT22;39868;53.398;6.564;2024-02-16T03:24:52;13.20;90.30
53962;DHT22;39868;53.398;6.564;2024-02-16T03:27:19;13.20;90.10
53962;DHT22;39868;53.398;6.564;2024-02-16T03:29:47;13.20;90.30
53962;DHT22;39868;53.398;6.564;2024-02-16T03:32:14;13.20;90.10
53962;DHT22;39868;53.398;6.564;2024-02-16T03:34:41;13.20;90.10
53962;DHT22;39868;53.398;6.564;2024-02-16T03:37:09;13.20;90.10
53962;DHT22;39868;53.398;6.564;2024-02-16T03:39:36;13.20;90.10
53962;DHT22;39868;53.398;6.564;2024-02-16T03:42:04;13.20;90.10
53962;DHT22;39868;53.398;6.564;2024-02-16T03:44:31;13.20;90.10
53962;DHT22;39868;53.398;6.564;2024-02-16T03:46:58;13.10;90.10
53962;DHT22;39868;53.398;6.564;2024-02-16T03:49:26;13.10;90.10
53962;DHT22;39868;53.398;6.564;2024-02-16T03:51:56;13.10;90.20
53962;DHT22;39868;53.398;6.564;2024-02-16T03:54:23;13.10;90.20
53962;DHT22;39868;53.398;6.564;2024-02-16T03:56:56;13.10;90.10
53962;DHT22;39868;53.398;6.564;2024-02-16T03:59:25;13.10;90.10
53962;DHT22;39868;53.398;6.564;2024-02-16T04:01:52;13.10;90.10
53962;DHT22;39868;53.398;6.564;2024-02-16T04:04:19;13.10;90.10
53962;DHT22;39868;53.398;6.564;2024-02-16T04:06:47;13.10;90.10
53962;DHT22;39868;53.398;6.564;2024-02-16T04:09:16;13.10;90.10
53962;DHT22;39868;53.398;6.564;2024-02-16T04:11:44;13.10;90.10
53962;DHT22;39868;53.398;6.564;2024-02-16T04:14:11;13.10;90.10
53962;DHT22;39868;53.398;6.564;2024-02-16T04:16:39;13.10;90.10
53962;DHT22;39868;53.398;6.564;2024-02-16T04:19:06;13.10;90.10
53962;DHT22;39868;53.398;6.564;2024-02-16T04:21:34;13.10;90.10
53962;DHT22;39868;53.398;6.564;2024-02-16T04:24:01;13.10;90.10
53962;DHT22;39868;53.398;6.564;2024-02-16T04:26:29;13.00;90.10
53962;DHT22;39868;53.398;6.564;2024-02-16T04:28:56;13.00;90.10
53962;DHT22;39868;53.398;6.564;2024-02-16T04:31:23;13.00;90.10
53962;DHT22;39868;53.398;6.564;2024-02-16T04:33:50;13.00;90.10
53962;DHT22;39868;53.398;6.564;2024-02-16T04:36:18;13.00;90.10
53962;DHT22;39868;53.398;6.564;2024-02-16T04:38:46;13.00;90.10
53962;DHT22;39868;53.398;6.564;2024-02-16T04:41:13;13.00;90.10
53962;DHT22;39868;53.398;6.564;2024-02-16T04:43:40;13.00;90.10
53962;DHT22;39868;53.398;6.564;2024-02-16T04:46:14;12.90;90.10
53962;DHT22;39868;53.398;6.564;2024-02-16T04:48:41;12.90;90.10
53962;DHT22;39868;53.398;6.564;2024-02-16T04:51:10;13.00;90.10
53962;DHT22;39868;53.398;6.564;2024-02-16T04:53:37;13.00;90.10
53962;DHT22;39868;53.398;6.564;2024-02-16T04:56:05;13.00;90.10
53962;DHT22;39868;53.398;6.564;2024-02-16T04:58:32;13.00;90.10
53962;DHT22;39868;53.398;6.564;2024-02-16T05:00:59;12.90;90.10
53962;DHT22;39868;53.398;6.564;2024-02-16T05:03:27;13.00;90.10
53962;DHT22;39868;53.398;6.564;2024-02-16T05:05:54;13.00;90.10
53962;DHT22;39868;53.398;6.564;2024-02-16T05:08:22;12.90;90.10
53962;DHT22;39868;53.398;6.564;2024-02-16T05:10:50;12.90;90.10
53962;DHT22;39868;53.398;6.564;2024-02-16T05:13:17;12.90;90.10
53962;DHT22;39868;53.398;6.564;2024-02-16T05:15:44;12.90;90.10
53962;DHT22;39868;53.398;6.564;2024-02-16T05:18:11;13.00;90.10
53962;DHT22;39868;53.398;6.564;2024-02-16T05:20:40;13.00;90.10
53962;DHT22;39868;53.398;6.564;2024-02-16T05:23:07;13.00;90.10
53962;DHT22;39868;53.398;6.564;2024-02-16T05:25:35;12.90;90.10
53962;DHT22;39868;53.398;6.564;2024-02-16T05:28:02;12.90;90.10
53962;DHT22;39868;53.398;6.564;2024-02-16T05:30:29;13.00;90.10
53962;DHT22;39868;53.398;6.564;2024-02-16T05:32:57;12.90;90.10
53962;DHT22;39868;53.398;6.564;2024-02-16T05:35:26;12.90;90.10
53962;DHT22;39868;53.398;6.564;2024-02-16T05:37:55;12.90;90.10
53962;DHT22;39868;53.398;6.564;2024-02-16T05:40:23;12.90;90.10
53962;DHT22;39868;53.398;6.564;2024-02-16T05:42:55;12.90;90.10
53962;DHT22;39868;53.398;6.564;2024-02-16T05:45:25;12.90;90.10
53962;DHT22;39868;53.398;6.564;2024-02-16T05:47:54;12.90;90.00
53962;DHT22;39868;53.398;6.564;2024-02-16T05:50:21;12.90;90.00
53962;DHT22;39868;53.398;6.564;2024-02-16T05:52:50;12.90;90.00
53962;DHT22;39868;53.398;6.564;2024-02-16T05:55:18;12.90;90.00
53962;DHT22;39868;53.398;6.564;2024-02-16T05:57:46;12.90;90.10
53962;DHT22;39868;53.398;6.564;2024-02-16T06:00:14;12.90;90.10
53962;DHT22;39868;53.398;6.564;2024-02-16T06:02:43;12.90;90.10
53962;DHT22;39868;53.398;6.564;2024-02-16T06:05:10;12.90;90.10
53962;DHT22;39868;53.398;6.564;2024-02-16T06:07:38;12.90;90.10
53962;DHT22;39868;53.398;6.564;2024-02-16T06:10:06;12.90;90.10
53962;DHT22;39868;53.398;6.564;2024-02-16T06:12:38;12.90;90.00
53962;DHT22;39868;53.398;6.564;2024-02-16T06:15:07;12.90;90.00
53962;DHT22;39868;53.398;6.564;2024-02-16T06:17:35;12.90;90.00
53962;DHT22;39868;53.398;6.564;2024-02-16T06:20:07;12.90;90.00
53962;DHT22;39868;53.398;6.564;2024-02-16T06:22:37;12.90;90.00
53962;DHT22;39868;53.398;6.564;2024-02-16T06:25:04;12.90;90.00
53962;DHT22;39868;53.398;6.564;2024-02-16T06:27:32;12.90;90.00
53962;DHT22;39868;53.398;6.564;2024-02-16T06:30:00;12.90;89.90
53962;DHT22;39868;53.398;6.564;2024-02-16T06:32:27;12.90;89.90
53962;DHT22;39868;53.398;6.564;2024-02-16T06:34:55;12.90;90.00
53962;DHT22;39868;53.398;6.564;2024-02-16T06:37:23;12.90;89.90
53962;DHT22;39868;53.398;6.564;2024-02-16T06:39:50;12.90;89.90
53962;DHT22;39868;53.398;6.564;2024-02-16T06:42:17;12.90;89.90
53962;DHT22;39868;53.398;6.564;2024-02-16T06:44:44;12.90;89.90
53962;DHT22;39868;53.398;6.564;2024-02-16T06:47:12;12.80;89.80
53962;DHT22;39868;53.398;6.564;2024-02-16T06:49:39;12.90;89.90
53962;DHT22;39868;53.398;6.564;2024-02-16T06:52:06;12.80;89.80
53962;DHT22;39868;53.398;6.564;2024-02-16T06:54:34;12.80;89.80
53962;DHT22;39868;53.398;6.564;2024-02-16T06:57:01;12.80;89.80
53962;DHT22;39868;53.398;6.564;2024-02-16T06:59:29;12.80;89.80
53962;DHT22;39868;53.398;6.564;2024-02-16T07:01:57;12.80;89.80
53962;DHT22;39868;53.398;6.564;2024-02-16T07:04:24;12.80;89.90
53962;DHT22;39868;53.398;6.564;2024-02-16T07:06:51;12.80;89.90
53962;DHT22;39868;53.398;6.564;2024-02-16T07:09:19;12.80;89.80
53962;DHT22;39868;53.398;6.564;2024-02-16T07:11:47;12.80;89.80
53962;DHT22;39868;53.398;6.564;2024-02-16T07:14:20;12.80;89.90
53962;DHT22;39868;53.398;6.564;2024-02-16T07:16:47;12.80;89.80
53962;DHT22;39868;53.398;6.564;2024-02-16T07:19:14;12.80;89.80
53962;DHT22;39868;53.398;6.564;2024-02-16T07:21:42;12.80;89.80
53962;DHT22;39868;53.398;6.564;2024-02-16T07:24:11;12.80;89.80
53962;DHT22;39868;53.398;6.564;2024-02-16T07:26:38;12.80;89.90
53962;DHT22;39868;53.398;6.564;2024-02-16T07:29:06;12.80;89.90
53962;DHT22;39868;53.398;6.564;2024-02-16T07:31:34;12.80;89.90
53962;DHT22;39868;53.398;6.564;2024-02-16T07:34:02;12.80;89.90
53962;DHT22;39868;53.398;6.564;2024-02-16T07:36:30;12.90;90.00
53962;DHT22;39868;53.398;6.564;2024-02-16T07:38:58;12.90;90.00
53962;DHT22;39868;53.398;6.564;2024-02-16T07:41:25;12.90;89.90
53962;DHT22;39868;53.398;6.564;2024-02-16T07:43:54;12.90;89.90
53962;DHT22;39868;53.398;6.564;2024-02-16T07:46:21;12.90;89.80
53962;DHT22;39868;53.398;6.564;2024-02-16T07:48:50;13.00;89.80
53962;DHT22;39868;53.398;6.564;2024-02-16T07:51:17;13.00;89.80
53962;DHT22;39868;53.398;6.564;2024-02-16T07:53:46;13.10;90.10
53962;DHT22;39868;53.398;6.564;2024-02-16T07:56:14;13.10;89.70
53962;DHT22;39868;53.398;6.564;2024-02-16T07:58:42;13.10;89.70
53962;DHT22;39868;53.398;6.564;2024-02-16T08:01:12;13.10;89.60
53962;DHT22;39868;53.398;6.564;2024-02-16T08:03:42;13.20;89.60
53962;DHT22;39868;53.398;6.564;2024-02-16T08:06:10;13.20;89.60
53962;DHT22;39868;53.398;6.564;2024-02-16T08:08:37;13.30;89.50
53962;DHT22;39868;53.398;6.564;2024-02-16T08:11:05;13.30;89.50
53962;DHT22;39868;53.398;6.564;2024-02-16T08:13:32;13.40;89.50
53962;DHT22;39868;53.398;6.564;2024-02-16T08:15:59;13.40;89.40
53962;DHT22;39868;53.398;6.564;2024-02-16T08:18:27;13.40;89.40
53962;DHT22;39868;53.398;6.564;2024-02-16T08:20:54;13.50;89.30
53962;DHT22;39868;53.398;6.564;2024-02-16T08:23:21;13.50;89.20
53962;DHT22;39868;53.398;6.564;2024-02-16T08:25:49;13.60;89.20
53962;DHT22;39868;53.398;6.564;2024-02-16T08:28:16;13.60;89.10
53962;DHT22;39868;53.398;6.564;2024-02-16T08:30:44;13.70;88.90
53962;DHT22;39868;53.398;6.564;2024-02-16T08:33:12;13.70;88.90
53962;DHT22;39868;53.398;6.564;2024-02-16T08:35:43;13.70;88.90
53962;DHT22;39868;53.398;6.564;2024-02-16T08:38:10;13.80;88.80
53962;DHT22;39868;53.398;6.564;2024-02-16T08:40:39;13.80;88.70
53962;DHT22;39868;53.398;6.564;2024-02-16T08:43:06;13.80;88.60
53962;DHT22;39868;53.398;6.564;2024-02-16T08:45:36;13.90;88.70
53962;DHT22;39868;53.398;6.564;2024-02-16T08:48:04;13.90;88.60
53962;DHT22;39868;53.398;6.564;2024-02-16T08:50:31;13.90;88.50
53962;DHT22;39868;53.398;6.564;2024-02-16T08:52:59;14.00;88.50
53962;DHT22;39868;53.398;6.564;2024-02-16T08:55:26;14.00;88.20
53962;DHT22;39868;53.398;6.564;2024-02-16T08:57:53;14.00;88.10
53962;DHT22;39868;53.398;6.564;2024-02-16T09:00:21;14.00;88.00
53962;DHT22;39868;53.398;6.564;2024-02-16T09:02:50;14.00;88.00
53962;DHT22;39868;53.398;6.564;2024-02-16T09:05:18;14.10;87.90
53962;DHT22;39868;53.398;6.564;2024-02-16T09:07:45;14.10;87.80
53962;DHT22;39868;53.398;6.564;2024-02-16T09:10:14;14.10;87.70
53962;DHT22;39868;53.398;6.564;2024-02-16T09:12:41;14.10;87.70
53962;DHT22;39868;53.398;6.564;2024-02-16T09:15:09;14.20;87.70
53962;DHT22;39868;53.398;6.564;2024-02-16T09:17:36;14.20;87.80
53962;DHT22;39868;53.398;6.564;2024-02-16T09:20:04;14.30;87.80
53962;DHT22;39868;53.398;6.564;2024-02-16T09:22:35;14.30;87.70
53962;DHT22;39868;53.398;6.564;2024-02-16T09:25:04;14.30;87.70
53962;DHT22;39868;53.398;6.564;2024-02-16T09:27:32;14.30;87.70
53962;DHT22;39868;53.398;6.564;2024-02-16T09:29:59;14.40;87.70
53962;DHT22;39868;53.398;6.564;2024-02-16T09:32:26;14.40;87.70
53962;DHT22;39868;53.398;6.564;2024-02-16T09:34:54;14.50;87.80
53962;DHT22;39868;53.398;6.564;2024-02-16T09:37:23;14.50;87.50
53962;DHT22;39868;53.398;6.564;2024-02-16T09:39:51;14.60;87.50
53962;DHT22;39868;53.398;6.564;2024-02-16T09:42:18;14.60;87.30
53962;DHT22;39868;53.398;6.564;2024-02-16T09:44:45;14.70;87.20
53962;DHT22;39868;53.398;6.564;2024-02-16T09:47:14;14.70;87.30
53962;DHT22;39868;53.398;6.564;2024-02-16T09:49:41;14.80;87.20
53962;DHT22;39868;53.398;6.564;2024-02-16T09:52:10;14.90;86.90
53962;DHT22;39868;53.398;6.564;2024-02-16T09:54:39;14.90;86.90
53962;DHT22;39868;53.398;6.564;2024-02-16T09:57:07;14.90;86.80
53962;DHT22;39868;53.398;6.564;2024-02-16T09:59:34;15.00;86.70
53962;DHT22;39868;53.398;6.564;2024-02-16T10:02:03;15.10;86.50
53962;DHT22;39868;53.398;6.564;2024-02-16T10:04:31;15.10;86.30
53962;DHT22;39868;53.398;6.564;2024-02-16T10:07:03;15.20;86.20
53962;DHT22;39868;53.398;6.564;2024-02-16T10:09:39;15.20;86.20
53962;DHT22;39868;53.398;6.564;2024-02-16T10:12:08;15.20;86.20
53962;DHT22;39868;53.398;6.564;2024-02-16T10:14:37;15.30;85.90
53962;DHT22;39868;53.398;6.564;2024-02-16T10:17:08;15.30;85.90
53962;DHT22;39868;53.398;6.564;2024-02-16T10:19:37;15.40;85.80
53962;DHT22;39868;53.398;6.564;2024-02-16T10:22:11;15.40;85.90
53962;DHT22;39868;53.398;6.564;2024-02-16T10:24:40;15.40;86.10
53962;DHT22;39868;53.398;6.564;2024-02-16T10:27:18;15.50;85.90
53962;DHT22;39868;53.398;6.564;2024-02-16T10:29:53;15.50;85.60
53962;DHT22;39868;53.398;6.564;2024-02-16T10:32:21;15.50;85.30
53962;DHT22;39868;53.398;6.564;2024-02-16T10:34:51;15.50;85.50
53962;DHT22;39868;53.398;6.564;2024-02-16T10:37:20;15.50;85.40
53962;DHT22;39868;53.398;6.564;2024-02-16T10:39:49;15.50;85.10
53962;DHT22;39868;53.398;6.564;2024-02-16T10:42:17;15.50;85.50
53962;DHT22;39868;53.398;6.564;2024-02-16T10:44:46;15.50;85.20
53962;DHT22;39868;53.398;6.564;2024-02-16T10:47:14;15.50;85.30
53962;DHT22;39868;53.398;6.564;2024-02-16T10:49:41;15.50;85.20
53962;DHT22;39868;53.398;6.564;2024-02-16T10:52:09;15.50;84.80
53962;DHT22;39868;53.398;6.564;2024-02-16T10:54:39;15.40;84.70
53962;DHT22;39868;53.398;6.564;2024-02-16T10:57:08;15.40;84.70
53962;DHT22;39868;53.398;6.564;2024-02-16T10:59:43;15.40;84.60
53962;DHT22;39868;53.398;6.564;2024-02-16T11:02:11;15.40;84.90
53962;DHT22;39868;53.398;6.564;2024-02-16T11:04:39;15.30;84.90
53962;DHT22;39868;53.398;6.564;2024-02-16T11:07:18;15.30;85.10
53962;DHT22;39868;53.398;6.564;2024-02-16T11:09:46;15.20;85.20
53962;DHT22;39868;53.398;6.564;2024-02-16T11:12:15;15.20;85.40
53962;DHT22;39868;53.398;6.564;2024-02-16T11:14:45;15.20;85.60
53962;DHT22;39868;53.398;6.564;2024-02-16T11:17:22;15.10;85.60
53962;DHT22;39868;53.398;6.564;2024-02-16T11:19:50;15.10;85.80
53962;DHT22;39868;53.398;6.564;2024-02-16T11:22:19;15.00;85.80
53962;DHT22;39868;53.398;6.564;2024-02-16T11:24:53;15.00;86.00
53962;DHT22;39868;53.398;6.564;2024-02-16T11:27:26;14.90;86.20
53962;DHT22;39868;53.398;6.564;2024-02-16T11:29:54;14.90;86.30
53962;DHT22;39868;53.398;6.564;2024-02-16T11:32:23;14.90;86.50
53962;DHT22;39868;53.398;6.564;2024-02-16T11:35:07;14.80;86.60
53962;DHT22;39868;53.398;6.564;2024-02-16T11:37:37;14.70;86.80
53962;DHT22;39868;53.398;6.564;2024-02-16T11:40:06;14.70;86.90
53962;DHT22;39868;53.398;6.564;2024-02-16T11:42:35;14.70;87.10
53962;DHT22;39868;53.398;6.564;2024-02-16T11:45:03;14.60;87.10
53962;DHT22;39868;53.398;6.564;2024-02-16T11:47:31;14.60;87.20
53962;DHT22;39868;53.398;6.564;2024-02-16T11:50:09;14.50;87.30
53962;DHT22;39868;53.398;6.564;2024-02-16T11:52:40;14.50;87.50
53962;DHT22;39868;53.398;6.564;2024-02-16T11:55:08;14.50;87.50
53962;DHT22;39868;53.398;6.564;2024-02-16T11:57:40;14.50;87.60
53962;DHT22;39868;53.398;6.564;2024-02-16T12:00:08;14.40;87.70
53962;DHT22;39868;53.398;6.564;2024-02-16T12:02:43;14.40;87.90
53962;DHT22;39868;53.398;6.564;2024-02-16T12:05:14;14.30;87.80
53962;DHT22;39868;53.398;6.564;2024-02-16T12:07:46;14.30;87.90
53962;DHT22;39868;53.398;6.564;2024-02-16T12:10:14;14.30;88.00
53962;DHT22;39868;53.398;6.564;2024-02-16T12:12:41;14.20;88.00
53962;DHT22;39868;53.398;6.564;2024-02-16T12:15:10;14.20;88.00
53962;DHT22;39868;53.398;6.564;2024-02-16T12:17:39;14.10;88.10
53962;DHT22;39868;53.398;6.564;2024-02-16T12:20:15;14.10;88.20
53962;DHT22;39868;53.398;6.564;2024-02-16T12:22:43;14.00;88.80
53962;DHT22;39868;53.398;6.564;2024-02-16T12:25:10;14.00;88.30
53962;DHT22;39868;53.398;6.564;2024-02-16T12:27:39;14.00;88.30
53962;DHT22;39868;53.398;6.564;2024-02-16T12:30:07;13.90;88.50
53962;DHT22;39868;53.398;6.564;2024-02-16T12:32:34;13.90;88.50
53962;DHT22;39868;53.398;6.564;2024-02-16T12:35:02;13.90;88.60
53962;DHT22;39868;53.398;6.564;2024-02-16T12:37:32;13.90;88.70
53962;DHT22;39868;53.398;6.564;2024-02-16T12:40:00;13.80;88.80
53962;DHT22;39868;53.398;6.564;2024-02-16T12:42:28;13.80;88.90
53962;DHT22;39868;53.398;6.564;2024-02-16T12:44:56;13.80;89.00
53962;DHT22;39868;53.398;6.564;2024-02-16T12:47:24;13.80;89.10
53962;DHT22;39868;53.398;6.564;2024-02-16T12:49:51;13.90;89.30
53962;DHT22;39868;53.398;6.564;2024-02-16T12:52:22;13.80;89.30
53962;DHT22;39868;53.398;6.564;2024-02-16T12:54:51;13.80;89.30
53962;DHT22;39868;53.398;6.564;2024-02-16T12:57:19;13.80;89.30
53962;DHT22;39868;53.398;6.564;2024-02-16T12:59:46;13.80;89.30
53962;DHT22;39868;53.398;6.564;2024-02-16T13:02:14;13.80;89.40
53962;DHT22;39868;53.398;6.564;2024-02-16T13:04:41;13.80;89.50
53962;DHT22;39868;53.398;6.564;2024-02-16T13:07:10;13.80;89.50
53962;DHT22;39868;53.398;6.564;2024-02-16T13:09:38;13.80;89.60
53962;DHT22;39868;53.398;6.564;2024-02-16T13:12:06;13.70;89.50
53962;DHT22;39868;53.398;6.564;2024-02-16T13:14:34;13.80;89.60
53962;DHT22;39868;53.398;6.564;2024-02-16T13:17:02;13.70;89.60
53962;DHT22;39868;53.398;6.564;2024-02-16T13:19:29;13.70;89.60
53962;DHT22;39868;53.398;6.564;2024-02-16T13:21:56;13.70;89.70
53962;DHT22;39868;53.398;6.564;2024-02-16T13:24:24;13.70;89.70
53962;DHT22;39868;53.398;6.564;2024-02-16T13:26:52;13.70;89.70
53962;DHT22;39868;53.398;6.564;2024-02-16T13:29:19;13.60;89.60
53962;DHT22;39868;53.398;6.564;2024-02-16T13:31:47;13.60;89.60
53962;DHT22;39868;53.398;6.564;2024-02-16T13:34:14;13.60;89.70
53962;DHT22;39868;53.398;6.564;2024-02-16T13:36:42;13.60;89.70
53962;DHT22;39868;53.398;6.564;2024-02-16T13:39:10;13.50;89.70
53962;DHT22;39868;53.398;6.564;2024-02-16T13:41:37;13.50;89.80
53962;DHT22;39868;53.398;6.564;2024-02-16T13:44:06;13.50;89.90
53962;DHT22;39868;53.398;6.564;2024-02-16T13:46:33;13.60;90.00
53962;DHT22;39868;53.398;6.564;2024-02-16T13:49:01;13.60;90.00
53962;DHT22;39868;53.398;6.564;2024-02-16T13:51:28;13.60;90.00
53962;DHT22;39868;53.398;6.564;2024-02-16T13:53:55;13.60;90.00
53962;DHT22;39868;53.398;6.564;2024-02-16T13:56:22;13.60;90.00
53962;DHT22;39868;53.398;6.564;2024-02-16T13:58:50;13.60;90.00
53962;DHT22;39868;53.398;6.564;2024-02-16T14:01:18;13.60;90.00
53962;DHT22;39868;53.398;6.564;2024-02-16T14:03:46;13.60;90.10
53962;DHT22;39868;53.398;6.564;2024-02-16T14:06:13;13.60;90.10
53962;DHT22;39868;53.398;6.564;2024-02-16T14:08:40;13.60;90.10
53962;DHT22;39868;53.398;6.564;2024-02-16T14:11:07;13.60;90.10
53962;DHT22;39868;53.398;6.564;2024-02-16T14:13:35;13.60;90.10
53962;DHT22;39868;53.398;6.564;2024-02-16T14:16:03;13.60;90.00
53962;DHT22;39868;53.398;6.564;2024-02-16T14:18:30;13.60;90.00
53962;DHT22;39868;53.398;6.564;2024-02-16T14:21:02;13.60;90.00
53962;DHT22;39868;53.398;6.564;2024-02-16T14:23:30;13.60;90.00
53962;DHT22;39868;53.398;6.564;2024-02-16T14:25:59;13.60;90.00
53962;DHT22;39868;53.398;6.564;2024-02-16T14:28:27;13.60;90.00
53962;DHT22;39868;53.398;6.564;2024-02-16T14:30:54;13.60;90.00
53962;DHT22;39868;53.398;6.564;2024-02-16T14:33:21;13.60;90.00
53962;DHT22;39868;53.398;6.564;2024-02-16T14:36:01;13.60;90.00
53962;DHT22;39868;53.398;6.564;2024-02-16T14:38:29;13.50;90.00
53962;DHT22;39868;53.398;6.564;2024-02-16T14:40:56;13.60;90.10
53962;DHT22;39868;53.398;6.564;2024-02-16T14:43:24;13.60;90.10
53962;DHT22;39868;53.398;6.564;2024-02-16T14:45:51;13.60;90.10
53962;DHT22;39868;53.398;6.564;2024-02-16T14:48:19;13.60;90.10
53962;DHT22;39868;53.398;6.564;2024-02-16T14:50:46;13.60;90.10
53962;DHT22;39868;53.398;6.564;2024-02-16T14:53:15;13.60;90.20
53962;DHT22;39868;53.398;6.564;2024-02-16T14:55:44;13.60;90.20
53962;DHT22;39868;53.398;6.564;2024-02-16T14:58:11;13.60;90.20
53962;DHT22;39868;53.398;6.564;2024-02-16T15:00:38;13.60;90.20
53962;DHT22;39868;53.398;6.564;2024-02-16T15:03:05;13.60;90.20
53962;DHT22;39868;53.398;6.564;2024-02-16T15:05:33;13.60;90.20
53962;DHT22;39868;53.398;6.564;2024-02-16T15:08:00;13.70;90.30
53962;DHT22;39868;53.398;6.564;2024-02-16T15:10:28;13.70;90.30
53962;DHT22;39868;53.398;6.564;2024-02-16T15:12:55;13.70;90.30
53962;DHT22;39868;53.398;6.564;2024-02-16T15:15:22;13.70;90.30
53962;DHT22;39868;53.398;6.564;2024-02-16T15:17:50;13.80;90.30
53962;DHT22;39868;53.398;6.564;2024-02-16T15:20:17;13.70;90.30
53962;DHT22;39868;53.398;6.564;2024-02-16T15:22:44;13.70;90.30
53962;DHT22;39868;53.398;6.564;2024-02-16T15:25:22;13.80;90.30
53962;DHT22;39868;53.398;6.564;2024-02-16T15:27:50;13.80;90.50
53962;DHT22;39868;53.398;6.564;2024-02-16T15:30:20;13.80;90.30
53962;DHT22;39868;53.398;6.564;2024-02-16T15:32:48;13.80;90.30
53962;DHT22;39868;53.398;6.564;2024-02-16T15:35:20;13.80;90.30